sensor_id;sensor_type;location;lat;lon;timestamp;temperature;humidity
67279;DHT22;54193;53.746;10.058;2023-07-13T00:00:15;14.77;92.62
67279;DHT22;54193;53.746;10.058;2023-07-13T00:03:02;14.76;93.03
67279;DHT22;54193;53.746;10.058;2023-07-13T00:05:57;14.67;92.75
67279;DHT22;54193;53.746;10.058;2023-07-13T00:08:44;14.63;92.49
67279;DHT22;54193;53.746;10.058;2023-07-13T00:11:29;14.60;92.50
67279;DHT22;54193;53.746;10.058;2023-07-13T00:14:15;14.57;92.40
67279;DHT22;54193;53.746;10.058;2023-07-13T00:17:01;14.49;92.43
67279;DHT22;54193;53.746;10.058;2023-07-13T00:19:46;14.43;92.38
67279;DHT22;54193;53.746;10.058;2023-07-13T00:22:32;14.39;92.26
67279;DHT22;54193;53.746;10.058;2023-07-13T00:25:18;14.36;92.28
67279;DHT22;54193;53.746;10.058;2023-07-13T00:28:04;14.32;92.20
67279;DHT22;54193;53.746;10.058;2023-07-13T00:30:49;14.29;92.18
67279;DHT22;54193;53.746;10.058;2023-07-13T00:33:35;14.25;92.21
67279;DHT22;54193;53.746;10.058;2023-07-13T00:36:20;14.21;92.11
67279;DHT22;54193;53.746;10.058;2023-07-13T00:39:06;14.14;92.23
67279;DHT22;54193;53.746;10.058;2023-07-13T00:41:52;14.05;92.29
67279;DHT22;54193;53.746;10.058;2023-07-13T00:44:38;13.98;92.14
67279;DHT22;54193;53.746;10.058;2023-07-13T00:47:25;13.95;92.37
67279;DHT22;54193;53.746;10.058;2023-07-13T00:50:13;13.90;92.43
67279;DHT22;54193;53.746;10.058;2023-07-13T00:52:59;13.82;92.12
67279;DHT22;54193;53.746;10.058;2023-07-13T00:55:46;13.78;92.25
67279;DHT22;54193;53.746;10.058;2023-07-13T00:58:33;13.67;92.23
67279;DHT22;54193;53.746;10.058;2023-07-13T01:01:19;13.67;92.14
67279;DHT22;54193;53.746;10.058;2023-07-13T01:04:05;13.61;92.19
67279;DHT22;54193;53.746;10.058;2023-07-13T01:06:53;13.61;92.44
67279;DHT22;54193;53.746;10.058;2023-07-13T01:09:39;13.61;92.39
67279;DHT22;54193;53.746;10.058;2023-07-13T01:12:25;13.54;92.74
67279;DHT22;54193;53.746;10.058;2023-07-13T01:15:37;13.57;92.49
67279;DHT22;54193;53.746;10.058;2023-07-13T01:18:25;13.59;92.40
67279;DHT22;54193;53.746;10.058;2023-07-13T01:21:12;13.61;92.87
67279;DHT22;54193;53.746;10.058;2023-07-13T01:23:58;13.63;92.84
67279;DHT22;54193;53.746;10.058;2023-07-13T01:26:43;13.64;92.65
67279;DHT22;54193;53.746;10.058;2023-07-13T01:29:30;13.67;92.79
67279;DHT22;54193;53.746;10.058;2023-07-13T01:32:19;13.70;92.97
67279;DHT22;54193;53.746;10.058;2023-07-13T01:35:08;13.75;93.08
67279;DHT22;54193;53.746;10.058;2023-07-13T01:37:53;13.71;92.88
67279;DHT22;54193;53.746;10.058;2023-07-13T01:41:07;13.77;93.26
67279;DHT22;54193;53.746;10.058;2023-07-13T01:43:53;13.94;93.29
67279;DHT22;54193;53.746;10.058;2023-07-13T01:46:39;14.02;93.41
67279;DHT22;54193;53.746;10.058;2023-07-13T01:49:25;14.21;93.67
67279;DHT22;54193;53.746;10.058;2023-07-13T01:52:10;14.26;93.45
67279;DHT22;54193;53.746;10.058;2023-07-13T01:54:56;14.32;93.40
67279;DHT22;54193;53.746;10.058;2023-07-13T01:57:42;14.30;93.49
67279;DHT22;54193;53.746;10.058;2023-07-13T02:00:27;14.29;93.50
67279;DHT22;54193;53.746;10.058;2023-07-13T02:03:13;14.29;93.40
67279;DHT22;54193;53.746;10.058;2023-07-13T02:06:03;14.29;93.48
67279;DHT22;54193;53.746;10.058;2023-07-13T02:08:48;14.28;93.61
67279;DHT22;54193;53.746;10.058;2023-07-13T02:11:34;14.32;93.58
67279;DHT22;54193;53.746;10.058;2023-07-13T02:14:20;14.36;93.54
67279;DHT22;54193;53.746;10.058;2023-07-13T02:17:06;14.32;93.73
67279;DHT22;54193;53.746;10.058;2023-07-13T02:19:51;14.26;93.93
67279;DHT22;54193;53.746;10.058;2023-07-13T02:22:37;14.24;93.89
67279;DHT22;54193;53.746;10.058;2023-07-13T02:25:23;14.18;93.93
67279;DHT22;54193;53.746;10.058;2023-07-13T02:28:10;14.14;93.79
67279;DHT22;54193;53.746;10.058;2023-07-13T02:31:04;14.14;93.96
67279;DHT22;54193;53.746;10.058;2023-07-13T02:33:49;14.15;94.02
67279;DHT22;54193;53.746;10.058;2023-07-13T02:36:35;14.12;94.14
67279;DHT22;54193;53.746;10.058;2023-07-13T02:39:21;14.15;94.23
67279;DHT22;54193;53.746;10.058;2023-07-13T02:42:06;14.09;94.16
67279;DHT22;54193;53.746;10.058;2023-07-13T02:44:52;14.15;94.31
67279;DHT22;54193;53.746;10.058;2023-07-13T02:47:39;14.15;94.22
67279;DHT22;54193;53.746;10.058;2023-07-13T02:50:25;14.09;94.31
67279;DHT22;54193;53.746;10.058;2023-07-13T02:53:11;14.12;94.41
67279;DHT22;54193;53.746;10.058;2023-07-13T02:55:57;14.09;94.47
67279;DHT22;54193;53.746;10.058;2023-07-13T02:58:43;14.07;94.39
67279;DHT22;54193;53.746;10.058;2023-07-13T03:01:28;14.05;94.41
67279;DHT22;54193;53.746;10.058;2023-07-13T03:04:14;14.09;94.42
67279;DHT22;54193;53.746;10.058;2023-07-13T03:07:00;14.07;94.39
67279;DHT22;54193;53.746;10.058;2023-07-13T03:09:45;14.07;94.34
67279;DHT22;54193;53.746;10.058;2023-07-13T03:12:31;14.07;94.36
67279;DHT22;54193;53.746;10.058;2023-07-13T03:15:16;14.09;94.30
67279;DHT22;54193;53.746;10.058;2023-07-13T03:18:02;14.09;94.21
67279;DHT22;54193;53.746;10.058;2023-07-13T03:20:50;14.11;94.22
67279;DHT22;54193;53.746;10.058;2023-07-13T03:23:36;14.08;94.26
67279;DHT22;54193;53.746;10.058;2023-07-13T03:26:22;14.12;94.16
67279;DHT22;54193;53.746;10.058;2023-07-13T03:29:09;14.17;94.07
67279;DHT22;54193;53.746;10.058;2023-07-13T03:31:54;14.12;94.02
67279;DHT22;54193;53.746;10.058;2023-07-13T03:34:40;14.14;94.00
67279;DHT22;54193;53.746;10.058;2023-07-13T03:37:26;14.18;93.83
67279;DHT22;54193;53.746;10.058;2023-07-13T03:40:12;14.11;93.92
67279;DHT22;54193;53.746;10.058;2023-07-13T03:42:58;14.14;93.74
67279;DHT22;54193;53.746;10.058;2023-07-13T03:45:43;14.11;93.83
67279;DHT22;54193;53.746;10.058;2023-07-13T03:48:29;14.12;93.66
67279;DHT22;54193;53.746;10.058;2023-07-13T03:51:16;14.08;93.69
67279;DHT22;54193;53.746;10.058;2023-07-13T03:54:03;14.05;93.67
67279;DHT22;54193;53.746;10.058;2023-07-13T03:56:48;14.07;93.61
67279;DHT22;54193;53.746;10.058;2023-07-13T03:59:34;14.08;93.43
67279;DHT22;54193;53.746;10.058;2023-07-13T04:02:20;14.04;93.20
67279;DHT22;54193;53.746;10.058;2023-07-13T04:05:06;14.09;93.09
67279;DHT22;54193;53.746;10.058;2023-07-13T04:07:52;14.11;92.75
67279;DHT22;54193;53.746;10.058;2023-07-13T04:10:37;14.15;92.37
67279;DHT22;54193;53.746;10.058;2023-07-13T04:13:24;14.18;92.21
67279;DHT22;54193;53.746;10.058;2023-07-13T04:16:10;14.21;91.92
67279;DHT22;54193;53.746;10.058;2023-07-13T04:18:56;14.32;91.94
67279;DHT22;54193;53.746;10.058;2023-07-13T04:21:45;14.36;91.55
67279;DHT22;54193;53.746;10.058;2023-07-13T04:24:32;14.42;91.40
67279;DHT22;54193;53.746;10.058;2023-07-13T04:27:17;14.47;90.98
67279;DHT22;54193;53.746;10.058;2023-07-13T04:30:03;14.53;90.44
67279;DHT22;54193;53.746;10.058;2023-07-13T04:32:51;14.63;90.28
67279;DHT22;54193;53.746;10.058;2023-07-13T04:35:37;14.72;89.23
67279;DHT22;54193;53.746;10.058;2023-07-13T04:38:24;14.80;89.28
67279;DHT22;54193;53.746;10.058;2023-07-13T04:41:10;14.87;89.27
67279;DHT22;54193;53.746;10.058;2023-07-13T04:43:56;14.90;89.09
67279;DHT22;54193;53.746;10.058;2023-07-13T04:46:42;14.90;89.16
67279;DHT22;54193;53.746;10.058;2023-07-13T04:49:28;14.81;89.01
67279;DHT22;54193;53.746;10.058;2023-07-13T04:52:13;14.76;89.03
67279;DHT22;54193;53.746;10.058;2023-07-13T04:54:59;14.66;89.47
67279;DHT22;54193;53.746;10.058;2023-07-13T04:57:46;14.64;89.54
67279;DHT22;54193;53.746;10.058;2023-07-13T05:00:31;14.64;89.59
67279;DHT22;54193;53.746;10.058;2023-07-13T05:03:17;14.67;89.30
67279;DHT22;54193;53.746;10.058;2023-07-13T05:06:05;14.80;89.06
67279;DHT22;54193;53.746;10.058;2023-07-13T05:08:51;14.91;89.05
67279;DHT22;54193;53.746;10.058;2023-07-13T05:11:36;15.00;88.77
67279;DHT22;54193;53.746;10.058;2023-07-13T05:14:22;15.24;88.52
67279;DHT22;54193;53.746;10.058;2023-07-13T05:17:08;15.45;87.82
67279;DHT22;54193;53.746;10.058;2023-07-13T05:19:54;15.69;87.00
67279;DHT22;54193;53.746;10.058;2023-07-13T05:22:39;15.83;86.45
67279;DHT22;54193;53.746;10.058;2023-07-13T05:25:25;15.93;86.11
67279;DHT22;54193;53.746;10.058;2023-07-13T05:28:11;15.93;85.94
67279;DHT22;54193;53.746;10.058;2023-07-13T05:30:57;16.01;85.76
67279;DHT22;54193;53.746;10.058;2023-07-13T05:33:43;16.17;85.14
67279;DHT22;54193;53.746;10.058;2023-07-13T05:36:28;16.41;84.91
67279;DHT22;54193;53.746;10.058;2023-07-13T05:39:14;16.62;84.18
67279;DHT22;54193;53.746;10.058;2023-07-13T05:42:01;16.70;84.14
67279;DHT22;54193;53.746;10.058;2023-07-13T05:44:46;16.70;83.88
67279;DHT22;54193;53.746;10.058;2023-07-13T05:47:32;16.79;83.75
67279;DHT22;54193;53.746;10.058;2023-07-13T05:50:18;16.65;83.79
67279;DHT22;54193;53.746;10.058;2023-07-13T05:53:04;16.56;83.72
67279;DHT22;54193;53.746;10.058;2023-07-13T05:55:50;16.53;83.79
67279;DHT22;54193;53.746;10.058;2023-07-13T05:58:36;16.59;84.17
67279;DHT22;54193;53.746;10.058;2023-07-13T06:01:23;16.62;84.11
67279;DHT22;54193;53.746;10.058;2023-07-13T06:04:09;16.68;84.13
67279;DHT22;54193;53.746;10.058;2023-07-13T06:06:54;16.77;83.97
67279;DHT22;54193;53.746;10.058;2023-07-13T06:09:40;16.63;83.85
67279;DHT22;54193;53.746;10.058;2023-07-13T06:12:26;16.69;84.22
67279;DHT22;54193;53.746;10.058;2023-07-13T06:15:12;16.63;84.03
67279;DHT22;54193;53.746;10.058;2023-07-13T06:17:57;16.69;84.36
67279;DHT22;54193;53.746;10.058;2023-07-13T06:20:43;16.76;84.02
67279;DHT22;54193;53.746;10.058;2023-07-13T06:23:29;16.84;83.96
67279;DHT22;54193;53.746;10.058;2023-07-13T06:26:18;16.77;84.04
67279;DHT22;54193;53.746;10.058;2023-07-13T06:29:04;16.93;84.06
67279;DHT22;54193;53.746;10.058;2023-07-13T06:31:50;17.00;83.58
67279;DHT22;54193;53.746;10.058;2023-07-13T06:34:36;16.99;83.67
67279;DHT22;54193;53.746;10.058;2023-07-13T06:37:21;17.10;83.37
67279;DHT22;54193;53.746;10.058;2023-07-13T06:40:08;17.31;83.20
67279;DHT22;54193;53.746;10.058;2023-07-13T06:42:53;17.31;83.01
67279;DHT22;54193;53.746;10.058;2023-07-13T06:45:43;17.45;82.55
67279;DHT22;54193;53.746;10.058;2023-07-13T06:48:31;17.39;82.48
67279;DHT22;54193;53.746;10.058;2023-07-13T06:51:17;17.62;82.68
67279;DHT22;54193;53.746;10.058;2023-07-13T06:54:03;17.48;81.66
67279;DHT22;54193;53.746;10.058;2023-07-13T06:56:48;17.51;81.67
67279;DHT22;54193;53.746;10.058;2023-07-13T06:59:34;17.76;81.79
67279;DHT22;54193;53.746;10.058;2023-07-13T07:02:20;17.91;81.06
67279;DHT22;54193;53.746;10.058;2023-07-13T07:05:05;18.28;80.82
67279;DHT22;54193;53.746;10.058;2023-07-13T07:07:54;18.51;79.63
67279;DHT22;54193;53.746;10.058;2023-07-13T07:10:41;18.38;78.93
67279;DHT22;54193;53.746;10.058;2023-07-13T07:13:27;18.56;79.15
67279;DHT22;54193;53.746;10.058;2023-07-13T07:16:14;18.68;78.81
67279;DHT22;54193;53.746;10.058;2023-07-13T07:19:00;18.73;78.34
67279;DHT22;54193;53.746;10.058;2023-07-13T07:21:45;18.92;78.44
67279;DHT22;54193;53.746;10.058;2023-07-13T07:24:31;19.07;77.97
67279;DHT22;54193;53.746;10.058;2023-07-13T07:27:16;19.07;77.59
67279;DHT22;54193;53.746;10.058;2023-07-13T07:30:03;19.04;77.48
67279;DHT22;54193;53.746;10.058;2023-07-13T07:32:48;19.17;77.57
67279;DHT22;54193;53.746;10.058;2023-07-13T07:35:34;18.89;77.96
67279;DHT22;54193;53.746;10.058;2023-07-13T07:38:20;19.35;78.11
67279;DHT22;54193;53.746;10.058;2023-07-13T07:41:05;19.75;76.14
67279;DHT22;54193;53.746;10.058;2023-07-13T07:43:51;20.32;74.73
67279;DHT22;54193;53.746;10.058;2023-07-13T07:46:37;19.87;73.46
67279;DHT22;54193;53.746;10.058;2023-07-13T07:49:22;19.90;75.50
67279;DHT22;54193;53.746;10.058;2023-07-13T07:52:08;19.82;75.21
67279;DHT22;54193;53.746;10.058;2023-07-13T07:54:54;20.13;74.85
67279;DHT22;54193;53.746;10.058;2023-07-13T07:57:40;21.16;72.32
67279;DHT22;54193;53.746;10.058;2023-07-13T08:00:25;21.74;71.48
67279;DHT22;54193;53.746;10.058;2023-07-13T08:03:11;21.00;71.65
67279;DHT22;54193;53.746;10.058;2023-07-13T08:05:56;20.74;71.18
67279;DHT22;54193;53.746;10.058;2023-07-13T08:08:42;20.29;73.74
67279;DHT22;54193;53.746;10.058;2023-07-13T08:11:28;19.78;75.07
67279;DHT22;54193;53.746;10.058;2023-07-13T08:14:13;19.76;74.71
67279;DHT22;54193;53.746;10.058;2023-07-13T08:16:59;19.92;73.94
67279;DHT22;54193;53.746;10.058;2023-07-13T08:19:45;20.24;75.03
67279;DHT22;54193;53.746;10.058;2023-07-13T08:22:30;20.52;71.88
67279;DHT22;54193;53.746;10.058;2023-07-13T08:25:16;20.78;73.01
67279;DHT22;54193;53.746;10.058;2023-07-13T08:28:03;21.61;70.36
67279;DHT22;54193;53.746;10.058;2023-07-13T08:30:49;21.30;69.45
67279;DHT22;54193;53.746;10.058;2023-07-13T08:33:35;22.09;70.46
67279;DHT22;54193;53.746;10.058;2023-07-13T08:36:21;20.98;69.42
67279;DHT22;54193;53.746;10.058;2023-07-13T08:39:07;21.99;69.13
67279;DHT22;54193;53.746;10.058;2023-07-13T08:41:57;21.39;68.80
67279;DHT22;54193;53.746;10.058;2023-07-13T08:44:56;20.94;69.32
67279;DHT22;54193;53.746;10.058;2023-07-13T08:47:57;22.52;66.78
67279;DHT22;54193;53.746;10.058;2023-07-13T08:50:54;22.75;66.77
67279;DHT22;54193;53.746;10.058;2023-07-13T08:53:47;22.23;67.30
67279;DHT22;54193;53.746;10.058;2023-07-13T08:56:33;21.39;67.92
67279;DHT22;54193;53.746;10.058;2023-07-13T08:59:21;22.09;69.27
67279;DHT22;54193;53.746;10.058;2023-07-13T09:05:42;23.18;65.15
67279;DHT22;54193;53.746;10.058;2023-07-13T09:08:49;22.83;65.38
67279;DHT22;54193;53.746;10.058;2023-07-13T09:11:43;21.84;66.31
67279;DHT22;54193;53.746;10.058;2023-07-13T09:14:52;22.42;66.14
67279;DHT22;54193;53.746;10.058;2023-07-13T09:17:47;22.42;66.64
67279;DHT22;54193;53.746;10.058;2023-07-13T09:20:44;21.71;68.22
67279;DHT22;54193;53.746;10.058;2023-07-13T09:23:32;21.77;67.91
67279;DHT22;54193;53.746;10.058;2023-07-13T09:26:22;21.80;67.31
67279;DHT22;54193;53.746;10.058;2023-07-13T09:29:17;22.13;69.72
67279;DHT22;54193;53.746;10.058;2023-07-13T09:32:06;22.37;65.81
67279;DHT22;54193;53.746;10.058;2023-07-13T09:34:55;23.00;66.91
67279;DHT22;54193;53.746;10.058;2023-07-13T09:37:43;23.96;64.10
67279;DHT22;54193;53.746;10.058;2023-07-13T09:43:23;22.87;65.35
67279;DHT22;54193;53.746;10.058;2023-07-13T09:46:21;22.26;66.02
67279;DHT22;54193;53.746;10.058;2023-07-13T09:49:09;22.52;62.29
67279;DHT22;54193;53.746;10.058;2023-07-13T09:52:22;21.87;66.27
67279;DHT22;54193;53.746;10.058;2023-07-13T09:55:24;21.98;65.35
67279;DHT22;54193;53.746;10.058;2023-07-13T09:58:16;22.77;62.35
67279;DHT22;54193;53.746;10.058;2023-07-13T10:01:04;23.94;59.11
67279;DHT22;54193;53.746;10.058;2023-07-13T10:03:53;23.78;62.39
67279;DHT22;54193;53.746;10.058;2023-07-13T10:06:40;23.10;59.76
67279;DHT22;54193;53.746;10.058;2023-07-13T10:09:28;23.01;60.37
67279;DHT22;54193;53.746;10.058;2023-07-13T10:12:14;24.45;57.15
67279;DHT22;54193;53.746;10.058;2023-07-13T10:15:01;23.77;58.05
67279;DHT22;54193;53.746;10.058;2023-07-13T10:17:47;25.04;57.34
67279;DHT22;54193;53.746;10.058;2023-07-13T10:20:35;23.59;59.75
67279;DHT22;54193;53.746;10.058;2023-07-13T10:23:24;22.98;60.23
67279;DHT22;54193;53.746;10.058;2023-07-13T10:26:17;22.52;60.34
67279;DHT22;54193;53.746;10.058;2023-07-13T10:29:09;23.08;61.01
67279;DHT22;54193;53.746;10.058;2023-07-13T10:31:56;23.15;59.19
67279;DHT22;54193;53.746;10.058;2023-07-13T10:34:46;23.25;60.43
67279;DHT22;54193;53.746;10.058;2023-07-13T10:41:02;22.67;61.09
67279;DHT22;54193;53.746;10.058;2023-07-13T10:43:53;22.50;60.64
67279;DHT22;54193;53.746;10.058;2023-07-13T10:46:41;21.91;60.76
67279;DHT22;54193;53.746;10.058;2023-07-13T10:49:28;21.85;60.51
67279;DHT22;54193;53.746;10.058;2023-07-13T10:52:49;21.15;60.18
67279;DHT22;54193;53.746;10.058;2023-07-13T10:58:38;19.90;65.48
67279;DHT22;54193;53.746;10.058;2023-07-13T11:01:24;19.65;68.22
67279;DHT22;54193;53.746;10.058;2023-07-13T11:04:12;19.27;72.89
67279;DHT22;54193;53.746;10.058;2023-07-13T11:07:11;18.01;79.55
67279;DHT22;54193;53.746;10.058;2023-07-13T11:09:59;17.73;80.06
67279;DHT22;54193;53.746;10.058;2023-07-13T11:12:52;17.96;81.95
67279;DHT22;54193;53.746;10.058;2023-07-13T11:15:44;18.26;79.84
67279;DHT22;54193;53.746;10.058;2023-07-13T11:18:33;19.04;78.41
67279;DHT22;54193;53.746;10.058;2023-07-13T11:21:25;19.27;75.47
67279;DHT22;54193;53.746;10.058;2023-07-13T11:26:57;19.64;73.08
67279;DHT22;54193;53.746;10.058;2023-07-13T11:29:43;19.67;71.19
67279;DHT22;54193;53.746;10.058;2023-07-13T11:32:31;19.34;72.65
67279;DHT22;54193;53.746;10.058;2023-07-13T11:35:26;18.64;77.22
67279;DHT22;54193;53.746;10.058;2023-07-13T11:38:17;18.44;78.12
67279;DHT22;54193;53.746;10.058;2023-07-13T11:41:26;18.37;79.09
67279;DHT22;54193;53.746;10.058;2023-07-13T11:44:16;18.66;77.54
67279;DHT22;54193;53.746;10.058;2023-07-13T11:47:10;18.68;75.15
67279;DHT22;54193;53.746;10.058;2023-07-13T11:49:57;19.10;77.23
67279;DHT22;54193;53.746;10.058;2023-07-13T11:52:43;19.41;76.59
67279;DHT22;54193;53.746;10.058;2023-07-13T11:55:29;19.79;73.34
67279;DHT22;54193;53.746;10.058;2023-07-13T11:58:21;19.74;71.45
67279;DHT22;54193;53.746;10.058;2023-07-13T12:01:18;19.93;73.13
67279;DHT22;54193;53.746;10.058;2023-07-13T12:04:05;19.14;74.61
67279;DHT22;54193;53.746;10.058;2023-07-13T12:07:06;17.69;82.50
67279;DHT22;54193;53.746;10.058;2023-07-13T12:10:03;17.07;85.06
67279;DHT22;54193;53.746;10.058;2023-07-13T12:13:01;16.77;87.23
67279;DHT22;54193;53.746;10.058;2023-07-13T12:15:48;16.56;87.77
67279;DHT22;54193;53.746;10.058;2023-07-13T12:18:34;16.41;87.05
67279;DHT22;54193;53.746;10.058;2023-07-13T12:21:23;16.47;88.51
67279;DHT22;54193;53.746;10.058;2023-07-13T12:24:20;16.38;89.45
67279;DHT22;54193;53.746;10.058;2023-07-13T12:27:22;16.22;89.38
67279;DHT22;54193;53.746;10.058;2023-07-13T12:33:08;16.15;89.49
67279;DHT22;54193;53.746;10.058;2023-07-13T12:35:56;16.03;88.94
67279;DHT22;54193;53.746;10.058;2023-07-13T12:38:45;15.98;89.38
67279;DHT22;54193;53.746;10.058;2023-07-13T12:41:32;15.98;90.43
67279;DHT22;54193;53.746;10.058;2023-07-13T12:44:25;16.11;90.71
67279;DHT22;54193;53.746;10.058;2023-07-13T12:47:14;16.13;89.65
67279;DHT22;54193;53.746;10.058;2023-07-13T12:50:03;16.48;90.12
67279;DHT22;54193;53.746;10.058;2023-07-13T12:52:54;16.87;89.14
67279;DHT22;54193;53.746;10.058;2023-07-13T12:55:44;17.21;88.90
67279;DHT22;54193;53.746;10.058;2023-07-13T12:58:36;17.68;88.61
67279;DHT22;54193;53.746;10.058;2023-07-13T13:01:23;18.13;88.60
67279;DHT22;54193;53.746;10.058;2023-07-13T13:04:12;18.34;85.95
67279;DHT22;54193;53.746;10.058;2023-07-13T13:07:03;18.30;83.93
67279;DHT22;54193;53.746;10.058;2023-07-13T13:09:51;18.41;84.48
67279;DHT22;54193;53.746;10.058;2023-07-13T13:12:39;18.35;83.72
67279;DHT22;54193;53.746;10.058;2023-07-13T13:15:24;18.73;83.98
67279;DHT22;54193;53.746;10.058;2023-07-13T13:18:18;18.59;82.52
67279;DHT22;54193;53.746;10.058;2023-07-13T13:21:04;18.64;83.59
67279;DHT22;54193;53.746;10.058;2023-07-13T13:23:50;18.61;83.95
67279;DHT22;54193;53.746;10.058;2023-07-13T13:26:37;18.58;84.40
67279;DHT22;54193;53.746;10.058;2023-07-13T13:29:24;18.68;84.75
67279;DHT22;54193;53.746;10.058;2023-07-13T13:32:12;18.73;84.52
67279;DHT22;54193;53.746;10.058;2023-07-13T13:34:58;18.65;84.34
67279;DHT22;54193;53.746;10.058;2023-07-13T13:37:44;18.77;84.00
67279;DHT22;54193;53.746;10.058;2023-07-13T13:40:30;18.77;83.91
67279;DHT22;54193;53.746;10.058;2023-07-13T13:43:26;19.11;82.86
67279;DHT22;54193;53.746;10.058;2023-07-13T13:46:18;19.34;82.10
67279;DHT22;54193;53.746;10.058;2023-07-13T13:49:04;19.43;82.80
67279;DHT22;54193;53.746;10.058;2023-07-13T13:51:51;19.54;81.65
67279;DHT22;54193;53.746;10.058;2023-07-13T13:54:36;19.11;80.85
67279;DHT22;54193;53.746;10.058;2023-07-13T13:57:25;19.23;80.31
67279;DHT22;54193;53.746;10.058;2023-07-13T14:00:12;19.27;82.91
67279;DHT22;54193;53.746;10.058;2023-07-13T14:02:59;19.47;81.49
67279;DHT22;54193;53.746;10.058;2023-07-13T14:05:46;19.35;80.62
67279;DHT22;54193;53.746;10.058;2023-07-13T14:08:31;19.30;81.09
67279;DHT22;54193;53.746;10.058;2023-07-13T14:11:20;19.34;80.04
67279;DHT22;54193;53.746;10.058;2023-07-13T14:14:07;19.59;80.79
67279;DHT22;54193;53.746;10.058;2023-07-13T14:16:55;20.20;79.39
67279;DHT22;54193;53.746;10.058;2023-07-13T14:19:41;20.19;79.45
67279;DHT22;54193;53.746;10.058;2023-07-13T14:22:27;20.32;78.30
67279;DHT22;54193;53.746;10.058;2023-07-13T14:25:14;20.13;79.96
67279;DHT22;54193;53.746;10.058;2023-07-13T14:28:15;20.24;78.63
67279;DHT22;54193;53.746;10.058;2023-07-13T14:31:03;20.34;77.58
67279;DHT22;54193;53.746;10.058;2023-07-13T14:33:49;20.67;76.15
67279;DHT22;54193;53.746;10.058;2023-07-13T14:36:39;20.44;74.88
67279;DHT22;54193;53.746;10.058;2023-07-13T14:39:26;20.40;75.79
67279;DHT22;54193;53.746;10.058;2023-07-13T14:42:12;20.23;74.34
67279;DHT22;54193;53.746;10.058;2023-07-13T14:44:57;20.00;74.05
67279;DHT22;54193;53.746;10.058;2023-07-13T14:47:43;19.87;74.01
67279;DHT22;54193;53.746;10.058;2023-07-13T14:50:31;20.10;74.89
67279;DHT22;54193;53.746;10.058;2023-07-13T14:53:18;19.83;71.35
67279;DHT22;54193;53.746;10.058;2023-07-13T14:56:10;19.55;71.77
67279;DHT22;54193;53.746;10.058;2023-07-13T14:58:56;19.90;74.19
67279;DHT22;54193;53.746;10.058;2023-07-13T15:01:42;19.97;72.41
67279;DHT22;54193;53.746;10.058;2023-07-13T15:04:29;20.71;69.81
67279;DHT22;54193;53.746;10.058;2023-07-13T15:07:15;21.19;67.59
67279;DHT22;54193;53.746;10.058;2023-07-13T15:10:12;20.63;68.58
67279;DHT22;54193;53.746;10.058;2023-07-13T15:13:01;20.64;65.90
67279;DHT22;54193;53.746;10.058;2023-07-13T15:15:51;20.64;64.82
67279;DHT22;54193;53.746;10.058;2023-07-13T15:18:37;21.06;63.16
67279;DHT22;54193;53.746;10.058;2023-07-13T15:21:25;21.27;63.26
67279;DHT22;54193;53.746;10.058;2023-07-13T15:24:14;21.36;62.72
67279;DHT22;54193;53.746;10.058;2023-07-13T15:27:00;21.42;63.40
67279;DHT22;54193;53.746;10.058;2023-07-13T15:29:46;20.89;63.50
67279;DHT22;54193;53.746;10.058;2023-07-13T15:32:32;21.26;63.27
67279;DHT22;54193;53.746;10.058;2023-07-13T15:35:24;20.99;64.79
67279;DHT22;54193;53.746;10.058;2023-07-13T15:38:19;20.79;64.41
67279;DHT22;54193;53.746;10.058;2023-07-13T15:41:27;20.57;65.85
67279;DHT22;54193;53.746;10.058;2023-07-13T15:44:23;20.47;64.76
67279;DHT22;54193;53.746;10.058;2023-07-13T15:47:12;20.82;64.74
67279;DHT22;54193;53.746;10.058;2023-07-13T15:49:59;21.12;65.03
67279;DHT22;54193;53.746;10.058;2023-07-13T15:52:50;20.60;64.62
67279;DHT22;54193;53.746;10.058;2023-07-13T15:55:39;20.58;65.51
67279;DHT22;54193;53.746;10.058;2023-07-13T15:58:26;20.75;64.97
67279;DHT22;54193;53.746;10.058;2023-07-13T16:01:12;20.79;64.53
67279;DHT22;54193;53.746;10.058;2023-07-13T16:03:57;20.92;65.25
67279;DHT22;54193;53.746;10.058;2023-07-13T16:06:43;20.65;66.12
67279;DHT22;54193;53.746;10.058;2023-07-13T16:09:29;20.48;66.60
67279;DHT22;54193;53.746;10.058;2023-07-13T16:12:15;20.68;66.65
67279;DHT22;54193;53.746;10.058;2023-07-13T16:15:01;20.30;67.06
67279;DHT22;54193;53.746;10.058;2023-07-13T16:17:47;20.41;67.46
67279;DHT22;54193;53.746;10.058;2023-07-13T16:20:33;20.32;67.66
67279;DHT22;54193;53.746;10.058;2023-07-13T16:23:20;20.26;65.92
67279;DHT22;54193;53.746;10.058;2023-07-13T16:29:17;20.10;66.97
67279;DHT22;54193;53.746;10.058;2023-07-13T16:32:12;19.89;67.97
67279;DHT22;54193;53.746;10.058;2023-07-13T16:34:58;19.93;68.06
67279;DHT22;54193;53.746;10.058;2023-07-13T16:37:45;19.93;68.80
67279;DHT22;54193;53.746;10.058;2023-07-13T16:40:33;19.90;68.48
67279;DHT22;54193;53.746;10.058;2023-07-13T16:43:20;20.33;68.32
67279;DHT22;54193;53.746;10.058;2023-07-13T16:46:11;20.45;66.23
67279;DHT22;54193;53.746;10.058;2023-07-13T16:49:00;20.52;67.41
67279;DHT22;54193;53.746;10.058;2023-07-13T16:51:47;20.41;69.67
67279;DHT22;54193;53.746;10.058;2023-07-13T16:54:35;20.30;70.05
67279;DHT22;54193;53.746;10.058;2023-07-13T16:57:23;20.16;70.10
67279;DHT22;54193;53.746;10.058;2023-07-13T17:00:21;20.02;69.93
67279;DHT22;54193;53.746;10.058;2023-07-13T17:03:14;19.97;71.39
67279;DHT22;54193;53.746;10.058;2023-07-13T17:06:04;19.97;70.83
67279;DHT22;54193;53.746;10.058;2023-07-13T17:08:57;19.90;69.83
67279;DHT22;54193;53.746;10.058;2023-07-13T17:11:43;19.69;70.69
67279;DHT22;54193;53.746;10.058;2023-07-13T17:14:31;19.53;71.17
67279;DHT22;54193;53.746;10.058;2023-07-13T17:17:26;19.34;70.86
67279;DHT22;54193;53.746;10.058;2023-07-13T17:20:31;19.27;70.54
67279;DHT22;54193;53.746;10.058;2023-07-13T17:23:24;19.13;70.94
67279;DHT22;54193;53.746;10.058;2023-07-13T17:26:10;19.07;71.11
67279;DHT22;54193;53.746;10.058;2023-07-13T17:28:56;19.10;71.12
67279;DHT22;54193;53.746;10.058;2023-07-13T17:31:42;19.23;70.19
67279;DHT22;54193;53.746;10.058;2023-07-13T17:34:28;19.17;70.94
67279;DHT22;54193;53.746;10.058;2023-07-13T17:37:16;19.03;71.07
67279;DHT22;54193;53.746;10.058;2023-07-13T17:40:08;18.93;71.97
67279;DHT22;54193;53.746;10.058;2023-07-13T17:42:58;18.81;72.46
67279;DHT22;54193;53.746;10.058;2023-07-13T17:45:43;18.72;73.19